createdAt,value
2018-07-17T00:00:22.126Z,15.30
2018-07-17T00:02:50.558Z,15.30
2018-07-17T00:05:19.039Z,15.30
2018-07-17T00:07:47.452Z,15.40
2018-07-17T00:10:16.209Z,15.50
2018-07-17T00:12:44.631Z,15.60
2018-07-17T00:17:41.206Z,15.70
2018-07-17T00:20:09.727Z,15.70
2018-07-17T00:22:38.137Z,15.60
2018-07-17T00:27:34.727Z,15.60
2018-07-17T00:30:03.244Z,15.70
2018-07-17T00:32:31.728Z,15.70
2018-07-17T00:35:00.192Z,15.70
2018-07-17T00:37:28.622Z,15.70
2018-07-17T00:39:57.158Z,15.70
2018-07-17T00:42:25.579Z,15.70
2018-07-17T00:44:54.030Z,15.70
2018-07-17T00:47:22.608Z,15.70
2018-07-17T00:49:51.205Z,15.70
2018-07-17T00:52:19.696Z,15.70
2018-07-17T00:54:48.137Z,15.70
2018-07-17T00:57:16.573Z,15.70
2018-07-17T00:59:44.982Z,15.70
2018-07-17T01:02:18.862Z,15.70
2018-07-17T01:04:52.530Z,15.70
2018-07-17T01:07:26.172Z,15.70
2018-07-17T01:09:59.736Z,15.60
2018-07-17T01:12:27.477Z,15.50
2018-07-17T01:15:05.912Z,15.50
2018-07-17T01:17:35.552Z,15.50
2018-07-17T01:20:04.068Z,15.40
2018-07-17T01:22:32.593Z,15.30
2018-07-17T01:25:00.981Z,15.30
2018-07-17T01:27:29.401Z,15.30
2018-07-17T01:29:57.804Z,15.30
2018-07-17T01:32:26.244Z,15.30
2018-07-17T01:37:22.860Z,15.30
2018-07-17T01:39:51.307Z,15.30
2018-07-17T01:42:19.861Z,15.30
2018-07-17T01:44:48.259Z,15.20
2018-07-17T01:47:16.696Z,15.20
2018-07-17T01:49:45.102Z,15.20
2018-07-17T01:52:13.544Z,15.10
2018-07-17T01:54:42.012Z,15.10
2018-07-17T01:57:10.492Z,15.10
2018-07-17T01:59:38.955Z,15.10
2018-07-17T02:02:07.456Z,15.10
2018-07-17T02:04:35.863Z,15.10
2018-07-17T02:07:04.312Z,15.00
2018-07-17T02:12:00.933Z,15.00
2018-07-17T02:14:29.340Z,15.00
2018-07-17T02:19:25.857Z,15.00
2018-07-17T02:21:54.286Z,15.00
2018-07-17T02:24:22.693Z,15.00
2018-07-17T02:26:51.242Z,15.00
2018-07-17T02:29:19.652Z,15.00
2018-07-17T02:31:48.095Z,15.00
2018-07-17T02:34:16.516Z,15.00
2018-07-17T02:36:44.965Z,15.00
2018-07-17T02:39:13.387Z,15.00
2018-07-17T02:41:41.842Z,15.00
2018-07-17T02:44:10.285Z,15.00
2018-07-17T02:46:38.709Z,15.00
2018-07-17T02:49:07.182Z,14.90
2018-07-17T02:51:35.588Z,14.90
2018-07-17T02:54:04.071Z,14.90
2018-07-17T02:56:32.501Z,14.90
2018-07-17T02:59:00.956Z,14.90
2018-07-17T03:01:29.364Z,14.90
2018-07-17T03:03:57.840Z,14.90
2018-07-17T03:06:26.480Z,14.80
2018-07-17T03:08:54.933Z,14.90
2018-07-17T03:11:23.338Z,14.80
2018-07-17T03:13:51.777Z,14.80
2018-07-17T03:16:20.192Z,14.80
2018-07-17T03:18:48.671Z,14.80
2018-07-17T03:21:17.092Z,14.80
2018-07-17T03:23:45.529Z,14.80
2018-07-17T03:26:13.953Z,14.80
2018-07-17T03:28:42.416Z,14.80
2018-07-17T03:31:10.871Z,14.80
2018-07-17T03:33:39.288Z,14.70
2018-07-17T03:36:07.760Z,14.70
2018-07-17T03:38:36.523Z,14.70
2018-07-17T03:41:05.039Z,14.60
2018-07-17T03:43:33.636Z,14.60
2018-07-17T03:46:02.070Z,14.60
2018-07-17T03:48:30.619Z,14.70
2018-07-17T03:50:59.036Z,14.70
2018-07-17T03:53:27.464Z,14.70
2018-07-17T03:55:55.948Z,14.70
2018-07-17T03:58:24.406Z,14.70
2018-07-17T04:00:52.828Z,14.70
2018-07-17T04:03:21.312Z,14.80
2018-07-17T04:05:49.883Z,14.80
2018-07-17T04:08:18.333Z,14.80
2018-07-17T04:10:46.787Z,14.80
2018-07-17T04:13:15.231Z,14.90
2018-07-17T04:15:43.658Z,14.90
2018-07-17T04:18:12.120Z,14.90
2018-07-17T04:20:40.548Z,14.90
2018-07-17T04:23:09.040Z,15.00
2018-07-17T04:25:37.723Z,15.10
2018-07-17T04:28:06.716Z,15.10
2018-07-17T04:30:35.180Z,15.10
2018-07-17T04:33:03.799Z,15.10
2018-07-17T04:35:32.300Z,15.20
2018-07-17T04:38:00.734Z,15.20
2018-07-17T04:40:29.249Z,15.30
2018-07-17T04:42:57.873Z,15.30
2018-07-17T04:45:26.328Z,15.30
2018-07-17T04:47:54.861Z,15.40
2018-07-17T04:50:23.335Z,15.50
2018-07-17T04:52:51.840Z,15.60
2018-07-17T04:55:20.272Z,15.70
2018-07-17T04:57:49.334Z,15.90
2018-07-17T05:00:17.845Z,16.10
2018-07-17T05:02:46.293Z,16.30
2018-07-17T05:05:14.753Z,16.40
2018-07-17T05:07:43.168Z,16.40
2018-07-17T05:10:11.805Z,16.50
2018-07-17T05:12:40.208Z,16.50
2018-07-17T05:15:08.980Z,16.60
2018-07-17T05:17:37.389Z,16.60
2018-07-17T05:20:06.256Z,16.80
2018-07-17T05:22:34.693Z,16.90
2018-07-17T05:25:03.184Z,17.00
2018-07-17T05:27:31.609Z,17.10
2018-07-17T05:30:00.079Z,17.20
2018-07-17T05:32:28.500Z,17.30
2018-07-17T05:34:57.010Z,17.40
2018-07-17T05:37:25.456Z,17.50
2018-07-17T05:39:53.961Z,17.60
2018-07-17T05:42:22.407Z,17.70
2018-07-17T05:44:50.960Z,17.90
2018-07-17T05:47:19.391Z,17.90
2018-07-17T05:49:47.824Z,18.10
2018-07-17T05:52:16.230Z,18.30
2018-07-17T05:54:44.685Z,18.40
2018-07-17T05:57:13.097Z,18.40
2018-07-17T05:59:41.540Z,18.80
2018-07-17T06:02:10.213Z,18.90
2018-07-17T06:04:38.656Z,19.10
2018-07-17T06:07:07.292Z,19.20
2018-07-17T06:09:35.857Z,19.20
2018-07-17T06:12:04.325Z,19.20
2018-07-17T06:14:32.793Z,19.70
2018-07-17T06:17:01.225Z,20.20
2018-07-17T06:19:29.676Z,20.40
2018-07-17T06:21:58.264Z,20.80
2018-07-17T06:24:26.673Z,21.20
2018-07-17T06:26:55.251Z,21.90
2018-07-17T06:29:23.697Z,22.40
2018-07-17T06:31:52.146Z,23.10
2018-07-17T06:34:20.583Z,23.30
2018-07-17T06:36:49.155Z,23.90
2018-07-17T06:39:17.566Z,24.00
2018-07-17T06:41:46.013Z,25.70
2018-07-17T06:44:14.450Z,25.70
2018-07-17T06:46:42.896Z,26.60
2018-07-17T06:49:11.314Z,26.70
2018-07-17T06:51:39.791Z,27.10
2018-07-17T06:54:08.244Z,27.10
2018-07-17T06:56:36.925Z,27.10
2018-07-17T06:59:05.362Z,27.50
2018-07-17T07:01:33.801Z,27.80
2018-07-17T07:04:02.239Z,27.80
2018-07-17T07:06:31.062Z,28.30
2018-07-17T07:08:59.475Z,28.40
2018-07-17T07:11:28.205Z,29.30
2018-07-17T07:13:56.680Z,29.30
2018-07-17T07:16:25.139Z,29.30
2018-07-17T07:18:53.559Z,30.30
2018-07-17T07:21:22.032Z,30.50
2018-07-17T07:23:50.477Z,30.50
2018-07-17T07:26:19.112Z,30.30
2018-07-17T07:28:47.527Z,31.00
2018-07-17T07:31:16.186Z,31.20
2018-07-17T07:33:44.604Z,32.10
2018-07-17T07:36:13.083Z,32.30
2018-07-17T07:38:41.489Z,32.30
2018-07-17T07:41:09.957Z,32.60
2018-07-17T07:43:38.408Z,33.10
2018-07-17T07:46:07.020Z,32.90
2018-07-17T07:48:35.496Z,31.40
2018-07-17T07:51:04.003Z,31.60
2018-07-17T07:53:32.464Z,31.60
2018-07-17T07:56:01.153Z,31.70
2018-07-17T07:58:29.563Z,32.60
2018-07-17T08:00:58.213Z,33.40
2018-07-17T08:03:26.732Z,33.80
2018-07-17T08:05:55.130Z,33.90
2018-07-17T08:08:23.531Z,34.20
2018-07-17T08:10:51.995Z,34.10
2018-07-17T08:20:44.960Z,34.00
2018-07-17T08:23:13.433Z,33.20
2018-07-17T08:25:42.052Z,33.80
2018-07-17T08:30:38.627Z,34.50
2018-07-17T08:33:07.134Z,35.50
2018-07-17T08:35:35.586Z,34.70
2018-07-17T08:38:04.066Z,33.40
2018-07-17T08:40:32.646Z,32.90
2018-07-17T08:43:01.077Z,32.90
2018-07-17T08:45:29.538Z,33.10
2018-07-17T08:47:57.964Z,31.20
2018-07-17T08:50:26.509Z,31.00
2018-07-17T08:52:55.090Z,31.00
2018-07-17T08:55:23.588Z,31.40
2018-07-17T09:00:20.226Z,29.10
2018-07-17T09:02:48.677Z,29.30
2018-07-17T09:05:17.083Z,29.30
2018-07-17T09:07:45.508Z,29.80
2018-07-17T09:10:14.061Z,30.80
2018-07-17T09:12:42.497Z,32.20
2018-07-17T09:15:11.011Z,32.80
2018-07-17T09:17:39.707Z,32.90
2018-07-17T09:20:08.153Z,33.00
2018-07-17T09:25:04.783Z,31.80
2018-07-17T09:27:33.259Z,31.00
2018-07-17T09:30:01.949Z,32.00
2018-07-17T09:32:30.384Z,31.90
2018-07-17T09:34:58.829Z,31.00
2018-07-17T09:37:27.288Z,32.00
2018-07-17T09:39:55.702Z,31.60
2018-07-17T09:42:24.161Z,30.30
2018-07-17T09:44:52.601Z,30.30
2018-07-17T09:47:21.036Z,30.40
2018-07-17T09:49:49.584Z,31.80
2018-07-17T09:52:18.066Z,32.30
2018-07-17T09:54:46.782Z,32.50
2018-07-17T09:57:15.245Z,32.30
2018-07-17T09:59:43.704Z,32.40
2018-07-17T10:02:17.522Z,33.40
2018-07-17T10:04:45.984Z,32.60
2018-07-17T10:07:14.420Z,31.80
2018-07-17T10:09:43.005Z,30.60
2018-07-17T10:12:11.424Z,32.30
2018-07-17T10:14:39.997Z,32.90
2018-07-17T10:17:08.348Z,33.20
2018-07-17T10:19:36.796Z,33.40
2018-07-17T10:22:05.456Z,33.50
2018-07-17T10:24:33.892Z,32.90
2018-07-17T10:27:02.397Z,32.20
2018-07-17T10:29:31.326Z,32.30
2018-07-17T10:31:59.825Z,32.60
2018-07-17T10:36:56.646Z,30.90
2018-07-17T10:39:25.121Z,30.50
2018-07-17T10:41:53.549Z,31.00
2018-07-17T10:44:22.074Z,31.80
2018-07-17T10:46:50.545Z,32.20
2018-07-17T10:49:19.060Z,32.80
2018-07-17T10:51:47.472Z,32.90
2018-07-17T10:54:15.914Z,33.30
2018-07-17T10:56:44.405Z,33.60
2018-07-17T10:59:12.850Z,33.10
2018-07-17T11:01:41.288Z,32.70
2018-07-17T11:04:09.741Z,31.70
2018-07-17T11:06:38.318Z,31.00
2018-07-17T11:09:06.907Z,29.60
2018-07-17T11:11:35.346Z,28.50
2018-07-17T11:14:03.940Z,27.80
2018-07-17T11:16:32.745Z,27.80
2018-07-17T11:19:01.377Z,27.60
2018-07-17T11:21:29.926Z,27.30
2018-07-17T11:26:26.484Z,27.50
2018-07-17T11:28:54.981Z,27.50
2018-07-17T11:31:23.581Z,27.90
2018-07-17T11:33:52.074Z,27.70
2018-07-17T11:36:20.509Z,27.60
2018-07-17T11:38:49.023Z,27.70
2018-07-17T11:41:17.442Z,27.90
2018-07-17T11:43:45.944Z,27.70
2018-07-17T11:46:14.372Z,27.80
2018-07-17T11:48:42.988Z,27.80
2018-07-17T11:51:11.574Z,27.40
2018-07-17T11:53:40.044Z,27.40
2018-07-17T11:56:08.611Z,27.30
2018-07-17T11:58:37.044Z,27.20
2018-07-17T12:01:05.713Z,27.00
2018-07-17T12:03:34.156Z,27.00
2018-07-17T12:06:02.610Z,27.00
2018-07-17T12:08:31.064Z,26.70
2018-07-17T12:10:59.500Z,26.70
2018-07-17T12:15:56.180Z,26.70
2018-07-17T12:18:24.680Z,26.70
2018-07-17T12:20:53.286Z,26.70
2018-07-17T12:23:21.695Z,26.70
2018-07-17T12:25:50.129Z,26.70
2018-07-17T12:28:18.580Z,26.50
2018-07-17T12:30:48.057Z,26.50
2018-07-17T12:33:16.653Z,26.80
2018-07-17T12:35:45.146Z,27.00
2018-07-17T12:38:13.600Z,27.40
2018-07-17T12:42:11.268Z,27.50
2018-07-17T12:44:40.054Z,27.30
2018-07-17T12:47:08.519Z,27.20
2018-07-17T12:49:36.960Z,26.80
2018-07-17T12:52:05.412Z,26.50
2018-07-17T12:54:33.829Z,26.30
2018-07-17T12:57:02.293Z,26.00
2018-07-17T12:59:30.813Z,25.80
2018-07-17T13:01:59.429Z,25.70
2018-07-17T13:04:27.864Z,25.80
2018-07-17T13:06:56.731Z,25.70
2018-07-17T13:11:53.321Z,25.60
2018-07-17T13:14:22.196Z,25.60
2018-07-17T13:16:50.646Z,25.50
2018-07-17T13:19:19.312Z,25.40
2018-07-17T13:21:47.775Z,25.20
2018-07-17T13:24:16.198Z,25.10
2018-07-17T13:26:44.679Z,24.90
2018-07-17T13:29:13.122Z,24.80
2018-07-17T13:31:41.708Z,24.70
2018-07-17T13:34:10.130Z,24.70
2018-07-17T13:36:38.873Z,24.70
2018-07-17T13:41:36.759Z,24.80
2018-07-17T13:44:05.528Z,25.00
2018-07-17T13:46:34.996Z,25.10
2018-07-17T13:49:03.424Z,25.20
2018-07-17T13:51:31.929Z,25.30
2018-07-17T13:54:00.365Z,25.30
2018-07-17T13:56:28.797Z,25.40
2018-07-17T13:58:57.324Z,25.70
2018-07-17T14:01:25.802Z,25.80
2018-07-17T14:03:54.315Z,25.80
2018-07-17T14:06:22.836Z,25.60
2018-07-17T14:08:51.285Z,25.70
2018-07-17T14:11:19.844Z,25.60
2018-07-17T14:13:48.264Z,25.30
2018-07-17T14:16:17.012Z,25.20
2018-07-17T14:18:45.526Z,25.10
2018-07-17T14:21:14.168Z,25.10
2018-07-17T14:23:42.645Z,25.00
2018-07-17T14:26:11.167Z,24.90
2018-07-17T14:28:39.772Z,24.80
2018-07-17T14:31:08.201Z,24.70
2018-07-17T14:33:37.480Z,24.70
2018-07-17T14:36:06.880Z,24.60
2018-07-17T14:38:35.466Z,24.60
2018-07-17T14:41:04.007Z,24.60
2018-07-17T14:46:00.692Z,24.60
2018-07-17T14:48:29.174Z,24.40
2018-07-17T14:50:57.614Z,24.40
2018-07-17T14:53:26.068Z,24.40
2018-07-17T14:55:54.634Z,24.60
2018-07-17T14:58:23.100Z,24.60
2018-07-17T15:00:51.519Z,24.60
2018-07-17T15:05:48.936Z,24.40
2018-07-17T15:08:18.385Z,24.10
2018-07-17T15:10:47.530Z,23.80
2018-07-17T15:13:16.256Z,23.70
2018-07-17T15:15:44.937Z,23.60
2018-07-17T15:18:13.188Z,23.40
2018-07-17T15:20:41.799Z,23.20
2018-07-17T15:23:10.261Z,23.00
2018-07-17T15:25:38.817Z,22.70
2018-07-17T15:28:07.592Z,22.10
2018-07-17T15:30:36.003Z,21.80
2018-07-17T15:33:04.477Z,21.50
2018-07-17T15:35:33.321Z,21.40
2018-07-17T15:38:01.804Z,20.90
2018-07-17T15:40:30.354Z,20.90
2018-07-17T15:42:59.158Z,20.90
2018-07-17T15:45:27.599Z,20.70
2018-07-17T15:47:56.121Z,20.50
2018-07-17T15:50:24.564Z,20.40
2018-07-17T15:52:53.044Z,20.50
2018-07-17T15:55:21.522Z,20.90
2018-07-17T15:57:50.007Z,21.20
2018-07-17T16:00:18.537Z,21.40
2018-07-17T16:02:47.140Z,21.40
2018-07-17T16:05:15.635Z,21.50
2018-07-17T16:07:44.160Z,21.50
2018-07-17T16:10:12.557Z,21.30
2018-07-17T16:12:41.104Z,21.20
2018-07-17T16:15:09.581Z,21.20
2018-07-17T16:17:38.063Z,21.20
2018-07-17T16:20:07.062Z,21.20
2018-07-17T16:22:35.920Z,21.20
2018-07-17T16:25:04.684Z,21.30
2018-07-17T16:27:33.193Z,21.40
2018-07-17T16:30:01.672Z,21.30
2018-07-17T16:32:30.123Z,21.30
2018-07-17T16:34:58.610Z,21.30
2018-07-17T16:37:27.085Z,21.30
2018-07-17T16:39:55.559Z,21.30
2018-07-17T16:42:24.011Z,21.30
2018-07-17T16:44:52.457Z,21.20
2018-07-17T16:47:20.915Z,21.10
2018-07-17T16:49:49.397Z,21.00
2018-07-17T16:52:18.073Z,21.10
2018-07-17T16:54:46.552Z,21.10
2018-07-17T16:57:15.006Z,21.20
2018-07-17T16:59:43.493Z,21.20
2018-07-17T17:02:11.941Z,21.30
2018-07-17T17:04:40.420Z,21.30
2018-07-17T17:07:08.863Z,21.30
2018-07-17T17:09:37.319Z,21.30
2018-07-17T17:12:05.955Z,21.40
2018-07-17T17:14:34.422Z,21.40
2018-07-17T17:17:02.861Z,21.40
2018-07-17T17:19:31.300Z,21.30
2018-07-17T17:24:27.998Z,21.20
2018-07-17T17:26:56.365Z,21.10
2018-07-17T17:29:24.904Z,21.00
2018-07-17T17:31:53.350Z,20.90
2018-07-17T17:34:21.834Z,20.90
2018-07-17T17:36:50.321Z,20.90
2018-07-17T17:39:18.776Z,20.90
2018-07-17T17:41:48.225Z,20.80
2018-07-17T17:44:16.681Z,20.80
2018-07-17T17:46:45.216Z,20.80
2018-07-17T17:49:13.656Z,20.60
2018-07-17T17:54:10.278Z,20.50
2018-07-17T17:56:38.717Z,20.40
2018-07-17T17:59:07.591Z,20.30
2018-07-17T18:04:04.284Z,19.90
2018-07-17T18:06:32.809Z,19.70
2018-07-17T18:09:01.479Z,19.50
2018-07-17T18:11:29.905Z,19.30
2018-07-17T18:13:59.945Z,19.20
2018-07-17T18:16:29.041Z,19.10
2018-07-17T18:18:57.553Z,19.10
2018-07-17T18:21:26.090Z,19.00
2018-07-17T18:23:54.515Z,18.80
2018-07-17T18:26:23.048Z,18.70
2018-07-17T18:31:20.389Z,18.50
2018-07-17T18:33:48.899Z,18.40
2018-07-17T18:36:17.404Z,18.40
2018-07-17T18:38:45.949Z,18.40
2018-07-17T18:41:14.475Z,18.40
2018-07-17T18:43:42.886Z,18.50
2018-07-17T18:46:11.333Z,18.50
2018-07-17T18:48:44.125Z,18.60
2018-07-17T18:51:12.948Z,18.50
2018-07-17T18:53:41.431Z,18.50
2018-07-17T18:56:10.051Z,18.30
2018-07-17T18:58:38.520Z,18.20
2018-07-17T19:03:35.284Z,18.00
2018-07-17T19:06:03.882Z,17.90
2018-07-17T19:08:32.242Z,17.90
2018-07-17T19:11:00.693Z,17.70
2018-07-17T19:13:29.167Z,17.60
2018-07-17T19:15:57.616Z,17.60
2018-07-17T19:18:26.102Z,17.60
2018-07-17T19:20:54.959Z,17.70
2018-07-17T19:23:23.400Z,17.70
2018-07-17T19:28:20.025Z,17.80
2018-07-17T19:30:48.504Z,17.80
2018-07-17T19:33:17.100Z,17.70
2018-07-17T19:35:45.992Z,17.70
2018-07-17T19:38:14.332Z,17.70
2018-07-17T19:40:42.751Z,17.70
2018-07-17T19:43:11.193Z,17.60
2018-07-17T19:45:39.677Z,17.60
2018-07-17T19:48:08.137Z,17.60
2018-07-17T19:50:36.603Z,17.60
2018-07-17T19:53:05.053Z,17.50
2018-07-17T19:55:33.537Z,17.60
2018-07-17T19:58:01.952Z,17.50
2018-07-17T20:00:30.416Z,17.50
2018-07-17T20:02:58.844Z,17.50
2018-07-17T20:05:27.320Z,17.50
2018-07-17T20:10:23.966Z,17.50
2018-07-17T20:12:52.519Z,17.50
2018-07-17T20:15:20.953Z,17.50
2018-07-17T20:17:49.392Z,17.50
2018-07-17T20:20:17.812Z,17.50
2018-07-17T20:22:46.277Z,17.50
2018-07-17T20:25:14.692Z,17.50
2018-07-17T20:27:43.120Z,17.50
2018-07-17T20:30:11.589Z,17.50
2018-07-17T20:32:40.186Z,17.50
2018-07-17T20:35:08.861Z,17.50
2018-07-17T20:37:37.384Z,17.40
2018-07-17T20:40:05.909Z,17.40
2018-07-17T20:42:34.410Z,17.50
2018-07-17T20:45:02.887Z,17.40
2018-07-17T20:47:31.312Z,17.40
2018-07-17T20:49:59.721Z,17.40
2018-07-17T20:54:56.576Z,17.40
2018-07-17T20:57:25.054Z,17.40
2018-07-17T20:59:53.466Z,17.50
2018-07-17T21:02:21.931Z,17.40
2018-07-17T21:04:50.411Z,17.30
2018-07-17T21:07:18.852Z,17.30
2018-07-17T21:09:47.277Z,17.30
2018-07-17T21:12:15.714Z,17.30
2018-07-17T21:14:44.133Z,17.20
2018-07-17T21:17:12.569Z,17.20
2018-07-17T21:19:41.044Z,17.20
2018-07-17T21:24:37.651Z,17.20
2018-07-17T21:27:06.197Z,17.20
2018-07-17T21:29:34.649Z,17.20
2018-07-17T21:32:03.093Z,17.20
2018-07-17T21:34:31.505Z,17.20
2018-07-17T21:37:00.019Z,17.20
2018-07-17T21:39:28.504Z,17.10
2018-07-17T21:41:56.940Z,17.10
2018-07-17T21:44:25.361Z,17.10
2018-07-17T21:46:53.856Z,17.10
2018-07-17T21:49:22.268Z,17.00
2018-07-17T21:51:50.679Z,17.00
2018-07-17T21:54:19.111Z,17.00
2018-07-17T21:56:47.513Z,17.10
2018-07-17T21:59:15.977Z,17.10
2018-07-17T22:01:44.387Z,17.10
2018-07-17T22:04:12.819Z,17.10
2018-07-17T22:09:12.064Z,17.20
2018-07-17T22:11:40.602Z,17.20
2018-07-17T22:14:09.062Z,17.20
2018-07-17T22:16:37.476Z,17.20
2018-07-17T22:19:06.437Z,17.20
2018-07-17T22:21:34.876Z,17.30
2018-07-17T22:24:03.348Z,17.20
2018-07-17T22:26:32.005Z,17.20
2018-07-17T22:29:00.697Z,17.20
2018-07-17T22:31:29.253Z,17.10
2018-07-17T22:33:57.697Z,17.10
2018-07-17T22:36:26.184Z,17.00
2018-07-17T22:38:54.629Z,17.00
2018-07-17T22:41:23.139Z,16.90
2018-07-17T22:43:51.591Z,16.90
2018-07-17T22:46:19.997Z,16.90
2018-07-17T22:48:48.481Z,16.90
2018-07-17T22:51:16.892Z,16.90
2018-07-17T22:53:45.468Z,16.90
2018-07-17T22:56:13.917Z,16.80
2018-07-17T22:58:42.374Z,16.80
2018-07-17T23:01:10.812Z,16.80
2018-07-17T23:03:39.241Z,16.80
2018-07-17T23:11:04.023Z,16.80
2018-07-17T23:13:32.502Z,16.80
2018-07-17T23:16:01.001Z,16.70
2018-07-17T23:18:29.468Z,16.70
2018-07-17T23:20:57.881Z,16.70
2018-07-17T23:23:27.489Z,16.70
2018-07-17T23:25:55.902Z,16.70
2018-07-17T23:28:24.331Z,16.70
2018-07-17T23:30:52.750Z,16.60
2018-07-17T23:33:21.181Z,16.60
2018-07-17T23:35:49.641Z,16.60
2018-07-17T23:38:18.088Z,16.60
2018-07-17T23:40:46.504Z,16.60
2018-07-17T23:43:14.952Z,16.70
2018-07-17T23:45:43.393Z,16.70
2018-07-17T23:48:11.805Z,16.70
2018-07-17T23:50:40.260Z,16.80
2018-07-17T23:53:08.768Z,16.80
2018-07-17T23:55:37.280Z,16.80
2018-07-17T23:58:05.860Z,16.80
